Time;durP1;ratioP1;P1;durP2;ratioP2;P2;SDS_P1;SDS_P2;PMS_P1;PMS_P2;Temp;Humidity;BMP_temperature;BMP_pressure;BME280_temperature;BME280_humidity;BME280_pressure;Samples;Min_cycle;Max_cycle;Signal;HPM_P1;HPM_P2
2021/08/25 00:00:29;;;;;;;18.23;11.20;;;15.00;92.70;;;;;;5048407;28;20442;-73
2021/08/25 00:02:55;;;;;;;15.27;10.20;;;15.00;92.80;;;;;;5049785;28;20470;-73
2021/08/25 00:05:20;;;;;;;23.70;11.83;;;15.00;92.80;;;;;;5050013;28;20430;-74
2021/08/25 00:07:46;;;;;;;17.60;10.93;;;15.00;93.00;;;;;;5044334;28;20415;-73
2021/08/25 00:10:12;;;;;;;18.70;9.77;;;14.90;93.10;;;;;;5049967;28;20185;-76
2021/08/25 00:12:38;;;;;;;17.53;10.53;;;14.90;93.10;;;;;;5044158;28;20287;-77
2021/08/25 00:15:07;;;;;;;15.93;10.50;;;14.90;93.20;;;;;;5044987;28;20809;-75
2021/08/25 00:17:33;;;;;;;18.37;10.87;;;14.90;93.20;;;;;;5046441;28;20472;-75
2021/08/25 00:19:59;;;;;;;17.97;11.40;;;14.80;93.30;;;;;;5043597;28;20427;-74
2021/08/25 00:22:24;;;;;;;15.60;9.90;;;14.80;93.40;;;;;;5045506;28;20239;-75
2021/08/25 00:24:50;;;;;;;20.33;11.10;;;14.70;93.50;;;;;;5050851;28;20214;-75
2021/08/25 00:27:16;;;;;;;24.10;11.80;;;14.70;93.60;;;;;;5042035;28;20211;-75
2021/08/25 00:29:42;;;;;;;20.63;11.00;;;14.60;93.90;;;;;;5049466;28;20187;-73
2021/08/25 00:32:08;;;;;;;25.87;12.00;;;14.60;94.10;;;;;;5049083;28;20245;-74
2021/08/25 00:34:34;;;;;;;19.80;11.10;;;14.50;94.20;;;;;;5048988;28;20427;-73
2021/08/25 00:36:59;;;;;;;17.50;11.40;;;14.50;94.20;;;;;;5049698;28;20310;-75
2021/08/25 00:39:25;;;;;;;16.37;10.57;;;14.50;94.40;;;;;;5050450;28;20242;-74
2021/08/25 00:41:51;;;;;;;20.87;11.97;;;14.40;94.40;;;;;;5047783;28;20204;-73
2021/08/25 00:44:17;;;;;;;21.20;12.27;;;14.30;94.60;;;;;;5041781;28;20292;-72
2021/08/25 00:46:44;;;;;;;17.10;11.20;;;14.30;94.80;;;;;;5040161;28;20203;-72
2021/08/25 00:49:16;;;;;;;19.83;11.00;;;14.20;95.00;;;;;;5041871;28;20418;-73
2021/08/25 00:51:45;;;;;;;18.20;11.33;;;14.20;95.30;;;;;;5045317;28;20522;-72
2021/08/25 00:54:11;;;;;;;22.37;12.07;;;14.10;95.40;;;;;;5038899;28;20423;-73
2021/08/25 00:56:37;;;;;;;20.13;11.77;;;14.10;95.60;;;;;;5044342;28;20415;-75
2021/08/25 00:59:05;;;;;;;19.67;11.10;;;14.10;95.70;;;;;;5037940;28;20433;-73
2021/08/25 01:01:36;;;;;;;20.90;11.90;;;14.10;95.60;;;;;;5044937;28;20196;-73
2021/08/25 01:04:05;;;;;;;17.87;11.20;;;14.10;95.70;;;;;;5049243;28;20973;-73
2021/08/25 01:06:32;;;;;;;20.30;13.03;;;14.10;95.70;;;;;;5035392;28;20422;-73
2021/08/25 01:09:02;;;;;;;21.57;12.57;;;14.00;95.80;;;;;;5048893;28;20461;-73
2021/08/25 01:11:28;;;;;;;21.63;12.70;;;13.90;95.90;;;;;;5049612;28;20933;-73
2021/08/25 01:13:54;;;;;;;21.93;12.90;;;13.90;96.00;;;;;;5048410;28;20418;-75
2021/08/25 01:16:20;;;;;;;22.53;11.97;;;13.90;96.20;;;;;;5049366;28;20781;-73
2021/08/25 01:18:47;;;;;;;21.60;11.90;;;13.90;96.20;;;;;;5043237;28;20200;-73
2021/08/25 01:21:14;;;;;;;23.83;11.87;;;13.90;96.20;;;;;;5043169;28;20431;-73
2021/08/25 01:23:43;;;;;;;21.57;12.30;;;13.90;96.20;;;;;;5048256;28;20494;-73
2021/08/25 01:26:10;;;;;;;21.77;12.20;;;13.90;96.20;;;;;;5045509;28;20419;-74
2021/08/25 01:28:43;;;;;;;22.87;12.47;;;13.80;96.20;;;;;;5038122;28;20455;-74
2021/08/25 01:31:10;;;;;;;24.30;12.40;;;13.80;96.20;;;;;;5041958;28;20856;-74
2021/08/25 01:33:35;;;;;;;22.30;12.13;;;13.80;96.20;;;;;;5038583;28;20427;-73
2021/08/25 01:36:01;;;;;;;25.97;13.13;;;13.80;96.20;;;;;;5041649;28;20832;-74
2021/08/25 01:38:52;;;;;;;23.73;13.00;;;13.80;96.40;;;;;;5042399;28;20276;-73
2021/08/25 01:41:20;;;;;;;18.60;11.60;;;13.70;96.30;;;;;;5038272;28;20207;-74
2021/08/25 01:43:45;;;;;;;24.97;11.83;;;13.70;96.50;;;;;;5043256;28;20470;-73
2021/08/25 01:46:26;;;;;;;22.13;12.20;;;13.70;96.50;;;;;;5035480;28;20994;-75
2021/08/25 01:48:56;;;;;;;19.03;11.27;;;13.70;96.50;;;;;;5042248;28;20184;-73
2021/08/25 01:51:24;;;;;;;20.70;12.03;;;13.70;96.50;;;;;;5042762;28;20486;-73
2021/08/25 01:53:50;;;;;;;19.03;11.73;;;13.70;96.40;;;;;;5040584;28;20430;-74
2021/08/25 01:56:16;;;;;;;16.37;10.53;;;13.60;96.40;;;;;;5042256;28;20440;-73
2021/08/25 01:58:42;;;;;;;19.20;11.87;;;13.60;96.50;;;;;;5039202;28;20184;-74
2021/08/25 02:01:07;;;;;;;18.30;11.03;;;13.60;96.60;;;;;;5045210;28;20733;-73
2021/08/25 02:03:33;;;;;;;21.63;11.57;;;13.60;96.60;;;;;;5049242;28;20204;-73
2021/08/25 02:05:59;;;;;;;22.40;11.33;;;13.60;96.60;;;;;;5043021;28;20189;-73
2021/08/25 02:08:25;;;;;;;18.17;11.20;;;13.50;96.40;;;;;;5047614;28;20259;-74
2021/08/25 02:10:50;;;;;;;16.83;10.63;;;13.60;96.50;;;;;;5042404;28;20265;-73
2021/08/25 02:13:16;;;;;;;19.13;11.70;;;13.60;96.50;;;;;;5043784;28;20208;-72
2021/08/25 02:15:42;;;;;;;19.70;10.70;;;13.50;96.40;;;;;;5042468;28;20184;-73
2021/08/25 02:18:07;;;;;;;19.87;12.17;;;13.50;96.50;;;;;;5048575;28;20181;-75
2021/08/25 02:20:33;;;;;;;22.00;11.20;;;13.50;96.30;;;;;;5041656;28;20181;-73
2021/08/25 02:22:59;;;;;;;21.00;12.17;;;13.40;96.60;;;;;;5049024;28;20613;-73
2021/08/25 02:25:25;;;;;;;19.30;10.93;;;13.40;96.60;;;;;;5051904;28;20177;-72
2021/08/25 02:27:50;;;;;;;21.57;11.23;;;13.40;96.60;;;;;;5044964;28;20192;-72
2021/08/25 02:30:16;;;;;;;19.17;10.60;;;13.40;96.60;;;;;;5050955;28;20187;-73
2021/08/25 02:32:42;;;;;;;22.60;12.80;;;13.30;96.60;;;;;;5052435;28;20211;-72
2021/08/25 02:35:11;;;;;;;20.10;12.17;;;13.30;96.70;;;;;;5041883;28;20193;-73
2021/08/25 02:37:37;;;;;;;18.40;11.53;;;13.30;96.70;;;;;;5050548;28;20176;-76
2021/08/25 02:40:06;;;;;;;18.33;11.43;;;13.20;96.80;;;;;;5052171;28;20430;-74
2021/08/25 02:42:32;;;;;;;22.33;12.07;;;13.20;96.80;;;;;;5049253;28;20466;-75
2021/08/25 02:44:58;;;;;;;20.97;12.47;;;13.20;96.90;;;;;;5047447;28;20441;-73
2021/08/25 02:47:23;;;;;;;18.83;11.40;;;13.20;96.90;;;;;;5049100;28;20552;-74
2021/08/25 02:49:49;;;;;;;18.70;10.97;;;13.20;97.00;;;;;;5052834;28;20438;-73
2021/08/25 02:52:15;;;;;;;21.77;12.73;;;13.20;97.00;;;;;;5052671;28;20197;-75
2021/08/25 02:54:40;;;;;;;21.27;11.67;;;13.20;96.80;;;;;;5055180;28;20180;-76
2021/08/25 02:57:06;;;;;;;20.57;12.37;;;13.20;96.80;;;;;;5052136;28;20176;-74
2021/08/25 02:59:32;;;;;;;20.00;12.10;;;13.20;96.80;;;;;;5051130;28;20275;-74
2021/08/25 03:01:57;;;;;;;18.90;10.83;;;13.20;96.80;;;;;;5054698;28;20208;-73
2021/08/25 03:04:23;;;;;;;21.90;12.17;;;13.20;96.90;;;;;;5053138;28;20583;-75
2021/08/25 03:06:49;;;;;;;24.10;12.87;;;13.20;96.80;;;;;;5045899;28;20176;-74
2021/08/25 03:09:15;;;;;;;19.83;12.03;;;13.20;96.80;;;;;;5048482;28;20275;-74
2021/08/25 03:11:40;;;;;;;21.93;12.47;;;13.10;96.80;;;;;;5052891;28;20911;-74
2021/08/25 03:14:06;;;;;;;20.97;11.80;;;13.10;96.90;;;;;;5049561;28;20275;-75
2021/08/25 03:16:32;;;;;;;18.10;12.00;;;13.10;97.00;;;;;;5052078;28;20426;-74
2021/08/25 03:18:58;;;;;;;23.67;12.53;;;13.10;97.00;;;;;;5045316;28;20185;-75
2021/08/25 03:21:23;;;;;;;25.43;13.27;;;13.10;97.00;;;;;;5050642;28;20644;-73
2021/08/25 03:23:49;;;;;;;23.00;13.40;;;13.20;97.10;;;;;;5046624;28;20215;-74
2021/08/25 03:26:15;;;;;;;22.70;12.70;;;13.20;97.10;;;;;;5047903;28;20266;-75
2021/08/25 03:28:41;;;;;;;21.87;12.67;;;13.20;97.10;;;;;;5043327;28;20213;-74
2021/08/25 03:31:06;;;;;;;20.53;11.87;;;13.20;97.10;;;;;;5051911;28;20493;-75
2021/08/25 03:33:32;;;;;;;22.70;11.63;;;13.30;97.00;;;;;;5050626;28;20600;-73
2021/08/25 03:35:58;;;;;;;22.47;12.83;;;13.30;96.90;;;;;;5049309;28;20200;-74
2021/08/25 03:38:24;;;;;;;22.13;12.70;;;13.30;96.90;;;;;;5046928;28;20188;-75
2021/08/25 03:40:49;;;;;;;22.20;12.37;;;13.30;96.80;;;;;;5050811;28;20207;-74
2021/08/25 03:43:15;;;;;;;22.70;13.17;;;13.20;96.80;;;;;;5049799;28;20296;-74
2021/08/25 03:45:41;;;;;;;29.90;14.30;;;13.20;96.80;;;;;;5049765;28;20545;-74
2021/08/25 03:48:06;;;;;;;22.03;13.07;;;13.10;96.70;;;;;;5049465;28;20657;-74
2021/08/25 03:50:32;;;;;;;22.23;12.67;;;13.10;96.90;;;;;;5049165;28;20188;-75
2021/08/25 03:52:58;;;;;;;27.23;13.97;;;13.10;96.80;;;;;;5045977;28;20522;-74
2021/08/25 03:55:23;;;;;;;22.33;12.90;;;13.10;96.80;;;;;;5049926;28;20208;-73
2021/08/25 03:57:49;;;;;;;25.00;13.33;;;13.00;96.90;;;;;;5040139;28;20268;-74
2021/08/25 04:00:15;;;;;;;24.03;13.20;;;13.00;97.00;;;;;;5046904;28;20642;-74
2021/08/25 04:02:41;;;;;;;21.13;12.37;;;13.00;96.90;;;;;;5051501;28;20247;-73
2021/08/25 04:05:08;;;;;;;20.80;11.27;;;12.90;97.00;;;;;;5051496;28;20919;-74
2021/08/25 04:07:34;;;;;;;26.70;13.23;;;13.00;97.00;;;;;;5051444;28;20203;-73
2021/08/25 04:10:00;;;;;;;22.50;13.73;;;13.00;97.00;;;;;;5051629;28;20427;-72
2021/08/25 04:12:25;;;;;;;21.33;12.17;;;12.90;97.00;;;;;;5040482;28;20750;-73
2021/08/25 04:14:51;;;;;;;21.73;12.87;;;12.90;97.00;;;;;;5051682;28;20555;-72
2021/08/25 04:17:17;;;;;;;23.63;12.93;;;12.90;97.20;;;;;;5046892;28;20177;-74
2021/08/25 04:19:43;;;;;;;21.50;12.40;;;12.80;97.30;;;;;;5052613;28;20594;-73
2021/08/25 04:22:09;;;;;;;25.90;13.80;;;12.80;97.30;;;;;;5050746;28;20303;-74
2021/08/25 04:24:36;;;;;;;21.90;12.30;;;12.80;97.40;;;;;;5051133;28;20192;-73
2021/08/25 04:27:03;;;;;;;22.43;13.23;;;12.80;97.40;;;;;;5048757;28;20452;-73
2021/08/25 04:29:28;;;;;;;27.47;14.87;;;12.80;97.50;;;;;;5044141;28;20414;-74
2021/08/25 04:31:54;;;;;;;24.23;13.37;;;12.70;97.50;;;;;;5052359;28;20443;-74
2021/08/25 04:34:20;;;;;;;25.70;13.83;;;12.80;97.60;;;;;;5050713;28;20199;-74
2021/08/25 04:36:46;;;;;;;21.40;12.13;;;12.80;97.70;;;;;;5052245;28;20438;-73
2021/08/25 04:39:11;;;;;;;27.60;14.60;;;12.70;97.70;;;;;;5052069;28;20195;-74
2021/08/25 04:41:38;;;;;;;26.50;14.20;;;12.70;97.80;;;;;;5052287;28;20208;-75
2021/08/25 04:44:05;;;;;;;23.57;12.70;;;12.70;97.90;;;;;;5051747;28;20678;-74
2021/08/25 04:46:31;;;;;;;22.53;12.93;;;12.70;97.80;;;;;;5050713;28;20961;-73
2021/08/25 04:48:56;;;;;;;27.00;13.90;;;12.70;97.60;;;;;;5051640;28;20419;-75
2021/08/25 04:51:22;;;;;;;20.00;12.30;;;12.70;97.40;;;;;;5049648;28;20204;-74
2021/08/25 04:53:48;;;;;;;21.70;12.97;;;12.60;97.50;;;;;;5049875;28;20188;-73
2021/08/25 04:56:14;;;;;;;24.17;13.43;;;12.60;97.60;;;;;;5044302;28;20225;-72
2021/08/25 04:58:40;;;;;;;27.00;13.50;;;12.70;97.70;;;;;;5051859;28;20241;-73
2021/08/25 05:01:06;;;;;;;20.70;11.77;;;12.70;97.70;;;;;;5047592;28;20586;-75
2021/08/25 05:03:32;;;;;;;24.23;12.60;;;12.70;97.80;;;;;;5050375;28;20207;-73
2021/08/25 05:05:58;;;;;;;20.70;12.50;;;12.70;97.80;;;;;;5050553;28;20506;-74
2021/08/25 05:08:23;;;;;;;24.13;13.20;;;12.70;97.80;;;;;;5048008;28;20238;-73
2021/08/25 05:10:49;;;;;;;23.77;13.20;;;12.80;97.70;;;;;;5048875;28;20180;-73
2021/08/25 05:13:15;;;;;;;21.23;13.10;;;12.80;97.60;;;;;;5048641;28;20211;-72
2021/08/25 05:15:45;;;;;;;21.37;12.90;;;12.80;97.50;;;;;;5050034;28;20509;-75
2021/08/25 05:18:11;;;;;;;22.57;13.40;;;12.80;97.50;;;;;;5051408;28;20509;-72
2021/08/25 05:20:38;;;;;;;22.43;12.43;;;12.80;97.50;;;;;;5044826;28;20407;-73
2021/08/25 05:23:04;;;;;;;21.63;12.07;;;12.80;97.50;;;;;;5046303;28;20467;-73
2021/08/25 05:25:30;;;;;;;20.93;13.10;;;12.80;97.50;;;;;;5051280;28;20415;-74
2021/08/25 05:27:56;;;;;;;20.80;12.93;;;12.80;97.50;;;;;;5044068;28;20431;-75
2021/08/25 05:30:22;;;;;;;20.70;11.63;;;12.80;97.50;;;;;;5046295;28;20490;-73
2021/08/25 05:32:51;;;;;;;23.50;13.20;;;12.90;97.30;;;;;;5049927;28;20702;-73
2021/08/25 05:35:22;;;;;;;25.03;12.77;;;12.90;97.30;;;;;;5048073;28;20283;-73
2021/08/25 05:37:49;;;;;;;25.37;13.50;;;12.90;97.30;;;;;;5050062;28;20422;-74
2021/08/25 05:40:16;;;;;;;23.97;13.67;;;13.00;97.50;;;;;;5042734;28;20649;-72
2021/08/25 05:42:42;;;;;;;25.10;14.97;;;13.00;97.30;;;;;;5050889;28;20465;-74
2021/08/25 05:45:09;;;;;;;30.47;14.90;;;13.00;97.20;;;;;;5050547;28;20430;-73
2021/08/25 05:47:35;;;;;;;27.50;14.53;;;13.00;97.20;;;;;;5048947;28;20430;-72
2021/08/25 05:50:02;;;;;;;22.87;13.43;;;13.00;97.30;;;;;;5047273;28;20924;-72
2021/08/25 05:52:28;;;;;;;22.13;13.17;;;13.10;97.20;;;;;;5050840;28;20439;-73
2021/08/25 05:54:53;;;;;;;27.60;14.77;;;13.10;97.30;;;;;;5050494;28;20778;-73
2021/08/25 05:57:19;;;;;;;24.87;14.00;;;13.20;97.20;;;;;;5050268;28;20177;-73
2021/08/25 05:59:45;;;;;;;24.80;14.00;;;13.30;97.00;;;;;;5055048;28;20176;-75
2021/08/25 06:02:10;;;;;;;24.23;13.47;;;13.30;96.80;;;;;;5057078;28;20200;-74
2021/08/25 06:04:36;;;;;;;29.50;15.10;;;13.40;96.50;;;;;;5054066;28;20663;-74
2021/08/25 06:07:02;;;;;;;23.10;13.97;;;13.50;96.30;;;;;;5057572;28;20544;-73
2021/08/25 06:09:28;;;;;;;24.50;14.03;;;13.60;96.10;;;;;;5057332;28;20190;-74
2021/08/25 06:11:54;;;;;;;22.03;13.23;;;13.70;95.60;;;;;;5054313;28;20569;-75
2021/08/25 06:14:19;;;;;;;21.63;13.70;;;13.70;95.10;;;;;;5055902;28;20188;-75
2021/08/25 06:16:45;;;;;;;21.83;13.07;;;13.70;95.20;;;;;;5057314;28;20429;-74
2021/08/25 06:19:11;;;;;;;24.77;14.07;;;13.70;95.30;;;;;;5048700;28;20660;-73
2021/08/25 06:21:37;;;;;;;23.70;13.87;;;13.80;95.10;;;;;;5056981;28;20208;-74
2021/08/25 06:24:03;;;;;;;24.17;14.37;;;13.80;94.90;;;;;;5057160;28;20325;-75
2021/08/25 06:26:28;;;;;;;24.33;13.90;;;13.80;94.70;;;;;;5057244;28;20187;-75
2021/08/25 06:28:54;;;;;;;25.93;15.07;;;13.80;94.60;;;;;;5055339;28;20414;-75
2021/08/25 06:31:21;;;;;;;21.07;13.00;;;13.90;94.60;;;;;;5057189;28;20180;-74
2021/08/25 06:33:46;;;;;;;24.20;13.93;;;13.90;94.80;;;;;;5062249;28;20180;-74
2021/08/25 06:36:12;;;;;;;21.40;13.10;;;13.90;94.70;;;;;;5053717;28;20451;-75
2021/08/25 06:38:38;;;;;;;27.10;13.90;;;14.10;94.40;;;;;;5057468;28;20191;-75
2021/08/25 06:41:03;;;;;;;25.63;14.37;;;14.20;94.00;;;;;;5046518;28;20180;-74
2021/08/25 06:43:31;;;;;;;28.63;13.70;;;14.20;93.40;;;;;;5050680;28;20204;-74
2021/08/25 06:45:56;;;;;;;24.10;13.17;;;14.30;93.30;;;;;;5057243;28;20204;-73
2021/08/25 06:48:22;;;;;;;25.30;14.20;;;14.30;93.10;;;;;;5048724;28;20977;-74
2021/08/25 06:50:49;;;;;;;22.53;13.10;;;14.30;93.00;;;;;;5054143;28;20208;-74
2021/08/25 06:53:15;;;;;;;23.70;12.60;;;14.30;92.70;;;;;;5055318;28;20916;-74
2021/08/25 06:55:41;;;;;;;18.10;11.90;;;14.40;92.70;;;;;;5055116;28;20185;-75
2021/08/25 06:58:06;;;;;;;22.43;12.30;;;14.60;92.60;;;;;;5054292;28;20189;-75
2021/08/25 07:00:32;;;;;;;22.23;11.80;;;14.60;92.00;;;;;;5054384;28;20505;-73
2021/08/25 07:02:58;;;;;;;18.90;11.57;;;14.70;91.40;;;;;;5056456;28;20611;-73
2021/08/25 07:05:24;;;;;;;19.13;11.43;;;14.80;91.00;;;;;;5053170;28;20624;-76
2021/08/25 07:07:49;;;;;;;21.03;12.07;;;14.80;91.20;;;;;;5057030;28;20655;-74
2021/08/25 07:10:15;;;;;;;18.53;11.87;;;14.90;91.10;;;;;;5049723;28;20241;-74
2021/08/25 07:12:41;;;;;;;19.40;12.00;;;15.00;91.30;;;;;;5053363;28;20225;-74
2021/08/25 07:15:07;;;;;;;21.10;11.80;;;15.10;91.20;;;;;;5045571;28;20195;-74
2021/08/25 07:17:32;;;;;;;19.40;11.70;;;15.00;91.00;;;;;;5052168;28;20211;-73
2021/08/25 07:19:58;;;;;;;22.20;11.53;;;15.10;91.00;;;;;;5052580;28;20431;-75
2021/08/25 07:22:24;;;;;;;20.03;11.83;;;15.20;90.60;;;;;;5047719;28;20233;-77
2021/08/25 07:24:50;;;;;;;19.37;10.90;;;15.30;89.70;;;;;;5048370;28;20188;-75
2021/08/25 07:27:15;;;;;;;18.53;10.60;;;15.50;89.90;;;;;;5042691;28;20253;-74
2021/08/25 07:29:41;;;;;;;17.00;9.90;;;15.50;89.60;;;;;;5048559;28;20184;-76
2021/08/25 07:32:07;;;;;;;19.20;10.73;;;15.60;89.20;;;;;;5041274;28;20620;-75
2021/08/25 07:34:33;;;;;;;16.93;10.30;;;15.70;88.90;;;;;;5047098;28;20177;-75
2021/08/25 07:37:00;;;;;;;18.63;10.80;;;15.70;88.60;;;;;;5045142;28;20614;-75
2021/08/25 07:39:26;;;;;;;19.10;11.60;;;15.70;88.60;;;;;;5045672;28;20231;-75
2021/08/25 07:41:52;;;;;;;18.27;11.20;;;15.80;88.10;;;;;;5044030;28;20490;-75
2021/08/25 07:44:20;;;;;;;16.13;9.90;;;15.80;88.00;;;;;;5046355;28;20299;-74
2021/08/25 07:46:46;;;;;;;21.57;9.80;;;15.90;87.60;;;;;;5048243;28;20430;-75
2021/08/25 07:49:13;;;;;;;21.00;11.10;;;16.00;87.30;;;;;;5044124;28;20434;-74
2021/08/25 07:51:39;;;;;;;14.83;9.43;;;16.10;87.30;;;;;;5047561;28;20251;-74
2021/08/25 07:54:05;;;;;;;17.50;9.87;;;16.30;86.80;;;;;;5041046;28;20848;-75
2021/08/25 07:56:31;;;;;;;15.40;10.10;;;16.40;86.00;;;;;;5045310;28;20195;-74
2021/08/25 07:58:57;;;;;;;16.00;9.33;;;16.40;85.70;;;;;;5041755;28;20277;-74
2021/08/25 08:01:23;;;;;;;13.90;9.17;;;16.50;85.90;;;;;;5044061;28;21168;-75
2021/08/25 08:03:49;;;;;;;15.17;9.43;;;16.50;85.70;;;;;;5049987;28;20270;-75
2021/08/25 08:06:20;;;;;;;21.20;9.93;;;16.60;85.50;;;;;;5041059;28;20440;-74
2021/08/25 08:08:47;;;;;;;16.60;9.27;;;16.70;84.70;;;;;;5047981;28;20215;-74
2021/08/25 08:11:13;;;;;;;16.47;9.77;;;16.90;84.60;;;;;;5042774;28;20444;-76
2021/08/25 08:13:39;;;;;;;17.30;9.67;;;16.90;84.10;;;;;;5052633;28;20422;-75
2021/08/25 08:16:05;;;;;;;13.70;8.90;;;16.90;84.30;;;;;;5051982;28;20433;-74
2021/08/25 08:18:33;;;;;;;15.93;9.03;;;17.00;83.80;;;;;;5050064;28;20269;-76
2021/08/25 08:20:59;;;;;;;12.67;9.17;;;17.10;83.00;;;;;;5046091;28;20602;-75
2021/08/25 08:23:25;;;;;;;16.97;9.63;;;17.10;82.70;;;;;;5050505;28;21043;-75
2021/08/25 08:25:51;;;;;;;18.43;8.77;;;17.10;82.20;;;;;;5051273;28;20434;-74
2021/08/25 08:28:17;;;;;;;20.90;9.17;;;17.00;82.10;;;;;;5049484;28;20278;-76
2021/08/25 08:30:43;;;;;;;13.83;8.43;;;17.00;82.20;;;;;;5046193;28;20206;-75
2021/08/25 08:33:08;;;;;;;18.90;10.07;;;17.10;82.50;;;;;;5050760;28;20581;-75
2021/08/25 08:35:36;;;;;;;16.10;8.90;;;17.20;82.40;;;;;;5051230;28;20333;-76
2021/08/25 08:38:03;;;;;;;17.00;8.70;;;17.20;81.70;;;;;;5048692;28;20201;-76
2021/08/25 08:40:30;;;;;;;15.00;9.03;;;17.30;81.50;;;;;;5042606;28;20426;-76
2021/08/25 08:43:12;;;;;;;12.73;8.10;;;17.30;81.20;;;;;;5046250;28;20471;-77
2021/08/25 08:45:43;;;;;;;16.53;9.10;;;17.30;81.10;;;;;;5043819;28;20419;-78
2021/08/25 08:48:11;;;;;;;12.40;8.10;;;17.40;80.50;;;;;;5043754;28;20578;-78
2021/08/25 08:50:38;;;;;;;12.43;8.10;;;17.60;79.50;;;;;;5051921;28;20422;-77
2021/08/25 08:53:06;;;;;;;10.63;7.20;;;17.70;77.40;;;;;;5040389;28;20819;-77
2021/08/25 08:55:32;;;;;;;11.00;6.77;;;17.60;75.90;;;;;;5047204;28;20431;-76
2021/08/25 08:57:57;;;;;;;12.13;7.37;;;17.70;76.40;;;;;;5041243;28;20435;-77
2021/08/25 09:00:23;;;;;;;13.43;7.97;;;17.90;76.10;;;;;;5048069;28;20199;-77
2021/08/25 09:02:49;;;;;;;8.37;5.97;;;18.00;74.30;;;;;;5051055;28;20209;-77
2021/08/25 09:05:19;;;;;;;10.83;6.77;;;18.00;74.20;;;;;;5047060;28;20196;-78
2021/08/25 09:08:05;;;;;;;12.13;6.50;;;18.00;74.30;;;;;;5048474;28;20209;-76
2021/08/25 09:10:35;;;;;;;9.53;6.60;;;18.10;74.50;;;;;;5047479;28;20416;-77
2021/08/25 09:13:06;;;;;;;9.70;5.37;;;18.20;73.20;;;;;;5047788;28;20526;-75
2021/08/25 09:15:35;;;;;;;12.43;6.47;;;18.20;72.70;;;;;;5043701;28;20805;-78
2021/08/25 09:18:05;;;;;;;12.07;7.10;;;18.30;73.60;;;;;;5050496;28;20786;-78
2021/08/25 09:20:34;;;;;;;10.57;7.00;;;18.30;74.00;;;;;;5049517;28;20427;-76
2021/08/25 09:23:07;;;;;;;13.87;7.20;;;18.40;74.20;;;;;;5052299;28;20472;-78
2021/08/25 09:25:34;;;;;;;9.57;6.03;;;18.50;74.00;;;;;;5043718;28;20427;-78
2021/08/25 09:28:00;;;;;;;10.30;7.13;;;18.70;73.00;;;;;;5051327;28;20435;-81
2021/08/25 09:30:46;;;;;;;10.17;6.53;;;18.80;72.60;;;;;;5054123;28;20457;-77
2021/08/25 09:33:12;;;;;;;11.37;7.57;;;18.80;74.20;;;;;;5040914;28;20450;-78
2021/08/25 09:35:42;;;;;;;10.87;7.03;;;18.80;72.30;;;;;;5046916;28;21009;-78
2021/08/25 09:38:08;;;;;;;9.80;7.07;;;18.80;74.30;;;;;;5046613;28;20195;-79
2021/08/25 09:40:44;;;;;;;14.17;7.00;;;19.00;74.20;;;;;;5047256;28;20477;-78
2021/08/25 09:43:10;;;;;;;12.20;7.60;;;19.20;72.70;;;;;;5047070;28;20479;-78
2021/08/25 09:45:36;;;;;;;10.60;6.60;;;19.30;71.80;;;;;;5053326;28;20425;-77
2021/08/25 09:48:02;;;;;;;9.00;5.73;;;19.40;70.50;;;;;;5046695;28;20242;-77
2021/08/25 09:50:27;;;;;;;10.27;6.90;;;19.50;68.30;;;;;;5049486;28;20216;-77
2021/08/25 09:52:54;;;;;;;11.27;7.53;;;19.60;68.50;;;;;;5044753;28;20213;-79
2021/08/25 09:55:33;;;;;;;9.13;7.03;;;19.60;69.50;;;;;;5050945;28;20188;-76
2021/08/25 09:58:00;;;;;;;11.33;7.70;;;19.60;69.50;;;;;;5045662;28;20535;-78
2021/08/25 10:00:26;;;;;;;10.83;7.10;;;19.60;69.50;;;;;;5050369;28;20435;-77
2021/08/25 10:02:53;;;;;;;10.60;7.07;;;19.50;69.10;;;;;;5051840;28;20477;-78
2021/08/25 10:05:28;;;;;;;11.50;7.00;;;19.60;69.70;;;;;;5051922;28;20456;-77
2021/08/25 10:07:55;;;;;;;9.40;6.30;;;19.60;68.80;;;;;;5049116;28;20461;-78
2021/08/25 10:10:21;;;;;;;11.40;6.30;;;19.50;69.10;;;;;;5044268;28;20437;-79
2021/08/25 10:12:51;;;;;;;9.20;6.30;;;19.70;68.80;;;;;;5044887;28;20443;-77
2021/08/25 10:15:39;;;;;;;12.33;6.10;;;20.00;68.60;;;;;;5042897;28;20511;-79
2021/08/25 10:18:29;;;;;;;7.23;5.77;;;20.20;66.60;;;;;;5051616;28;20481;-78
2021/08/25 10:20:57;;;;;;;8.80;5.70;;;20.30;65.40;;;;;;5051378;28;20420;-79
2021/08/25 10:23:54;;;;;;;9.13;5.90;;;20.50;64.80;;;;;;5052146;28;21250;-80
2021/08/25 10:26:19;;;;;;;7.27;4.93;;;20.50;62.50;;;;;;5047491;28;20480;-77
2021/08/25 10:29:06;;;;;;;7.57;5.67;;;20.40;61.60;;;;;;5047962;28;20917;-75
2021/08/25 10:32:01;;;;;;;10.10;5.97;;;20.30;62.20;;;;;;5040768;28;20252;-77
2021/08/25 10:34:33;;;;;;;8.17;5.03;;;20.20;62.80;;;;;;5040166;28;20438;-76
2021/08/25 10:37:11;;;;;;;8.97;6.07;;;20.20;61.90;;;;;;5043940;28;20455;-75
2021/08/25 10:39:39;;;;;;;8.20;5.37;;;20.30;61.90;;;;;;5039223;28;20507;-76
2021/08/25 10:42:05;;;;;;;10.70;5.40;;;20.30;61.00;;;;;;5047899;28;20597;-76
2021/08/25 10:44:37;;;;;;;8.40;5.70;;;20.30;60.30;;;;;;5047398;28;20981;-77
2021/08/25 10:47:04;;;;;;;8.00;4.97;;;20.20;59.90;;;;;;5049335;28;20799;-75
2021/08/25 10:49:33;;;;;;;9.30;5.90;;;20.30;59.70;;;;;;5044703;28;20800;-75
2021/08/25 10:52:28;;;;;;;9.23;5.20;;;20.40;59.60;;;;;;5046908;28;20637;-76
2021/08/25 10:54:55;;;;;;;9.20;5.63;;;20.40;59.90;;;;;;5046195;28;20445;-76
2021/08/25 10:57:23;;;;;;;9.37;5.47;;;20.80;58.90;;;;;;5043305;28;20437;-76
2021/08/25 10:59:49;;;;;;;8.33;5.17;;;21.40;56.90;;;;;;5046221;28;20432;-76
2021/08/25 11:02:16;;;;;;;7.33;4.90;;;21.90;55.30;;;;;;5053404;28;20446;-75
2021/08/25 11:04:42;;;;;;;9.27;5.33;;;22.10;54.50;;;;;;5052434;28;20815;-75
2021/08/25 11:07:13;;;;;;;9.90;6.47;;;22.50;54.60;;;;;;5047982;28;20434;-74
2021/08/25 11:09:50;;;;;;;8.93;5.03;;;22.90;54.00;;;;;;5049641;28;20586;-73
2021/08/25 11:12:21;;;;;;;8.10;5.07;;;23.20;52.90;;;;;;5045456;28;20450;-73
2021/08/25 11:14:49;;;;;;;7.33;4.97;;;23.20;53.20;;;;;;5054118;28;20478;-72
2021/08/25 11:17:19;;;;;;;8.40;5.43;;;23.10;52.40;;;;;;5049308;28;20575;-73
2021/08/25 11:19:59;;;;;;;8.97;5.07;;;22.80;53.60;;;;;;5044607;28;20434;-73
2021/08/25 11:22:33;;;;;;;10.40;6.30;;;22.60;54.00;;;;;;5044718;28;20947;-73
2021/08/25 11:25:03;;;;;;;9.30;6.07;;;22.50;54.90;;;;;;5046019;28;20834;-73
2021/08/25 11:27:35;;;;;;;9.47;5.27;;;22.50;56.00;;;;;;5042076;28;20414;-72
2021/08/25 11:30:20;;;;;;;9.07;5.60;;;22.50;56.10;;;;;;5044254;28;20429;-74
2021/08/25 11:32:53;;;;;;;9.83;6.20;;;22.40;56.90;;;;;;5042953;28;20447;-72
2021/08/25 11:35:31;;;;;;;11.73;6.00;;;22.20;57.20;;;;;;5043241;28;20435;-73
2021/08/25 11:37:59;;;;;;;9.80;5.87;;;21.90;58.00;;;;;;5046774;28;20489;-72
2021/08/25 11:40:27;;;;;;;9.60;6.30;;;21.80;57.80;;;;;;5043876;28;20508;-73
2021/08/25 11:42:53;;;;;;;9.43;5.13;;;21.60;56.80;;;;;;5044210;28;20825;-73
2021/08/25 11:45:33;;;;;;;9.23;5.50;;;21.80;56.40;;;;;;5049955;28;20440;-73
2021/08/25 11:48:00;;;;;;;8.47;5.80;;;21.90;56.50;;;;;;5043579;28;20488;-73
2021/08/25 11:50:29;;;;;;;7.90;5.10;;;22.20;55.30;;;;;;5053959;28;20449;-73
2021/08/25 11:52:55;;;;;;;8.60;5.90;;;22.20;55.20;;;;;;5043259;28;20455;-72
2021/08/25 11:55:22;;;;;;;8.27;5.67;;;22.10;54.40;;;;;;5051643;28;20427;-73
2021/08/25 11:57:55;;;;;;;8.87;5.40;;;22.10;53.40;;;;;;5041406;28;20505;-73
2021/08/25 12:00:40;;;;;;;8.53;5.40;;;22.10;53.60;;;;;;5048963;28;20445;-73
2021/08/25 12:03:08;;;;;;;11.83;5.73;;;22.60;52.90;;;;;;5046843;28;21024;-72
2021/08/25 12:05:35;;;;;;;8.27;5.40;;;23.10;51.60;;;;;;5050981;28;20432;-73
2021/08/25 12:08:08;;;;;;;7.50;5.07;;;23.50;50.20;;;;;;5052177;28;20423;-74
2021/08/25 12:10:46;;;;;;;10.87;5.43;;;24.00;49.40;;;;;;5046046;28;20437;-73
2021/08/25 12:13:36;;;;;;;10.53;6.17;;;24.20;47.40;;;;;;5048180;28;20790;-74
2021/08/25 12:16:04;;;;;;;9.70;6.20;;;24.40;47.10;;;;;;5045743;28;20414;-72
2021/08/25 12:18:44;;;;;;;8.20;5.43;;;24.60;46.70;;;;;;5048395;28;20473;-73
2021/08/25 12:21:10;;;;;;;9.80;5.63;;;24.70;46.30;;;;;;5045372;28;20411;-73
2021/08/25 12:23:36;;;;;;;6.90;4.83;;;24.60;47.50;;;;;;5044232;28;20472;-72
2021/08/25 12:26:01;;;;;;;12.80;5.90;;;24.60;47.30;;;;;;5045823;28;20203;-73
2021/08/25 12:28:39;;;;;;;9.30;5.47;;;24.70;46.90;;;;;;5043690;28;20631;-73
2021/08/25 12:31:23;;;;;;;10.57;6.40;;;24.70;47.00;;;;;;5046273;28;20196;-73
2021/08/25 12:34:02;;;;;;;9.90;5.70;;;24.70;45.30;;;;;;5042404;28;20421;-73
2021/08/25 12:36:28;;;;;;;9.63;5.27;;;24.10;45.90;;;;;;5042719;28;20437;-73